Lehighton, Pennsylvania
Current Conditions -  °F | °C
As of 9:35 AM on Thursday 27 Nov 2014 (Local Time) from KHZL Reporting Station
Light Snow Light Snow  
Wind Chill: -5°   Ceiling: 300
Heat Index: -1°   Visibility: 5mi
Dew Point: -2°   Wind: 7mph
Humidity: 93%   Direction: 290°WNW
Pressure: 29.99"   Gusts: NA
Location:  40.83°N, 75.71°W
Report Text: KHZL 271435Z AUTO 29006KT 5SM -SN OVC003 M01/M02 A2999 RMK AO2
Loading
Personal Weather Stations






























Interactive Weather Map New forecast layout! Learn more

10-Day Weather Forecast

Advertisements
Track Severe Weather on mobile